Time;durP1;ratioP1;P1;durP2;ratioP2;P2;SDS_P1;SDS_P2;PMS_P1;PMS_P2;Temp;Humidity;BMP_temperature;BMP_pressure;BME280_temperature;BME280_humidity;BME280_pressure;Samples;Min_cycle;Max_cycle;Signal;HPM_P1;HPM_P2
2022/07/11 00:02:08;;;;;;;1.63;1.40;;;13.50;99.90;;;;;;5009637;28;20937;-76
2022/07/11 00:04:34;;;;;;;2.50;1.03;;;13.40;99.90;;;;;;4975641;28;20466;-77
2022/07/11 00:07:02;;;;;;;4.87;1.23;;;13.40;99.90;;;;;;5011070;28;20471;-77
2022/07/11 00:09:28;;;;;;;5.97;1.87;;;13.40;99.90;;;;;;5009338;28;20412;-75
2022/07/11 00:11:54;;;;;;;3.17;1.30;;;13.30;99.90;;;;;;4991456;28;20527;-75
2022/07/11 00:14:21;;;;;;;7.87;1.47;;;13.30;99.90;;;;;;5009008;28;20515;-75
2022/07/11 00:16:51;;;;;;;4.13;1.43;;;13.30;99.90;;;;;;5009411;28;20969;-75
2022/07/11 00:19:17;;;;;;;3.33;1.50;;;13.40;99.90;;;;;;5009609;28;20432;-75
2022/07/11 00:21:42;;;;;;;8.83;1.30;;;13.50;99.90;;;;;;4992678;28;20512;-76
2022/07/11 00:24:08;;;;;;;5.17;1.33;;;13.50;99.90;;;;;;4976412;28;20295;-76
2022/07/11 00:26:34;;;;;;;7.70;1.37;;;13.50;99.90;;;;;;5010052;28;20220;-76
2022/07/11 00:29:00;;;;;;;1.73;1.13;;;13.50;99.90;;;;;;5010556;28;20925;-76
2022/07/11 00:31:26;;;;;;;5.53;1.63;;;13.50;99.90;;;;;;5009422;28;20432;-77
2022/07/11 00:33:52;;;;;;;4.13;1.20;;;13.40;99.90;;;;;;4991849;28;20419;-77
2022/07/11 00:36:18;;;;;;;3.83;1.20;;;13.30;99.90;;;;;;4991655;28;20205;-77
2022/07/11 00:38:43;;;;;;;7.63;2.03;;;13.40;99.90;;;;;;4991330;28;20197;-77
2022/07/11 00:41:10;;;;;;;4.60;1.40;;;13.50;99.90;;;;;;4991595;28;20219;-77
2022/07/11 00:43:38;;;;;;;2.27;1.13;;;13.70;99.90;;;;;;5009007;28;20210;-76
2022/07/11 00:46:05;;;;;;;2.03;1.17;;;13.90;99.90;;;;;;4991333;28;20479;-76
2022/07/11 00:48:31;;;;;;;3.23;1.00;;;14.00;99.90;;;;;;4991404;28;20467;-77
2022/07/11 00:50:57;;;;;;;4.20;1.20;;;14.10;99.90;;;;;;5008946;28;20443;-76
2022/07/11 00:53:24;;;;;;;3.97;1.50;;;14.10;99.90;;;;;;5009112;28;20435;-77
2022/07/11 00:55:52;;;;;;;1.70;1.20;;;14.00;99.90;;;;;;5009477;28;20436;-77
2022/07/11 00:58:18;;;;;;;3.67;1.40;;;14.10;99.90;;;;;;4991132;28;20432;-77
2022/07/11 01:00:44;;;;;;;4.73;1.37;;;14.10;99.90;;;;;;4991763;28;20432;-77
2022/07/11 01:03:11;;;;;;;3.40;1.40;;;14.00;99.90;;;;;;4980559;28;20943;-78
2022/07/11 01:05:36;;;;;;;4.70;1.17;;;13.90;99.90;;;;;;4997605;28;20342;-77
2022/07/11 01:08:02;;;;;;;3.90;1.33;;;13.80;99.90;;;;;;4997964;28;20419;-77
2022/07/11 01:10:28;;;;;;;4.20;1.20;;;13.90;99.90;;;;;;4998795;28;20288;-78
2022/07/11 01:12:54;;;;;;;6.73;1.10;;;13.90;99.90;;;;;;4998724;28;20459;-77
2022/07/11 01:15:20;;;;;;;2.30;0.87;;;14.00;99.90;;;;;;5015320;28;20235;-78
2022/07/11 01:17:46;;;;;;;2.30;1.23;;;14.20;99.90;;;;;;4979403;28;20424;-77
2022/07/11 01:20:12;;;;;;;2.90;1.40;;;14.30;99.90;;;;;;5013011;28;20433;-77
2022/07/11 01:22:51;;;;;;;4.40;1.10;;;14.30;99.90;;;;;;5015301;28;20412;-77
2022/07/11 01:25:34;;;;;;;3.03;1.20;;;14.40;99.90;;;;;;5015328;28;20208;-77
2022/07/11 01:28:02;;;;;;;2.50;1.10;;;14.50;99.90;;;;;;4981178;28;20498;-77
2022/07/11 01:30:30;;;;;;;2.60;1.27;;;14.50;99.90;;;;;;4994739;28;20498;-77
2022/07/11 01:32:56;;;;;;;4.30;1.27;;;14.50;99.90;;;;;;5011928;28;20781;-77
2022/07/11 01:35:22;;;;;;;5.43;1.20;;;14.60;99.90;;;;;;5011961;28;20428;-76
2022/07/11 01:37:48;;;;;;;3.60;1.20;;;14.60;99.90;;;;;;5011825;28;20421;-75
2022/07/11 01:40:14;;;;;;;6.10;1.30;;;14.60;99.90;;;;;;5011982;28;20459;-75
2022/07/11 01:42:40;;;;;;;2.60;1.33;;;14.70;99.90;;;;;;5011818;28;20499;-75
2022/07/11 01:45:07;;;;;;;2.70;1.50;;;14.70;99.90;;;;;;5011644;28;20873;-75
2022/07/11 01:47:33;;;;;;;3.73;1.57;;;14.60;99.90;;;;;;4993874;28;20463;-75
2022/07/11 01:49:59;;;;;;;3.77;1.20;;;14.70;99.90;;;;;;5011687;28;20456;-75
2022/07/11 01:52:25;;;;;;;1.97;0.90;;;14.70;99.90;;;;;;5011610;28;20254;-75
2022/07/11 01:54:51;;;;;;;3.47;1.10;;;14.70;99.90;;;;;;4993916;28;20406;-75
2022/07/11 01:57:17;;;;;;;2.90;1.40;;;14.60;99.90;;;;;;5011252;28;20474;-75
2022/07/11 01:59:42;;;;;;;1.50;1.30;;;14.60;99.90;;;;;;4993828;28;20213;-75
2022/07/11 02:02:08;;;;;;;2.90;1.70;;;14.60;99.90;;;;;;5011487;28;20264;-75
2022/07/11 02:04:33;;;;;;;2.60;1.40;;;14.60;99.90;;;;;;4993722;28;20239;-75
2022/07/11 02:06:59;;;;;;;3.90;2.17;;;14.50;99.90;;;;;;4993538;28;20632;-75
2022/07/11 02:09:25;;;;;;;2.70;1.33;;;14.50;99.90;;;;;;5011162;28;20213;-75
2022/07/11 02:11:50;;;;;;;4.00;2.37;;;14.60;99.90;;;;;;5011326;28;20181;-75
2022/07/11 02:14:16;;;;;;;6.30;1.57;;;14.50;99.90;;;;;;4992416;28;20193;-75
2022/07/11 02:16:42;;;;;;;4.33;2.00;;;14.50;99.90;;;;;;4993589;28;20216;-75
2022/07/11 02:19:07;;;;;;;1.63;1.13;;;14.50;99.90;;;;;;5011226;28;20181;-76
2022/07/11 02:21:33;;;;;;;6.77;1.60;;;14.50;99.90;;;;;;4977302;28;20197;-75
2022/07/11 02:23:59;;;;;;;2.00;1.30;;;14.50;99.90;;;;;;5011366;28;20197;-75
2022/07/11 02:26:25;;;;;;;4.17;1.77;;;14.50;99.90;;;;;;4994156;28;20940;-75
2022/07/11 02:28:50;;;;;;;3.50;1.37;;;14.50;99.90;;;;;;5011836;28;20196;-75
2022/07/11 02:31:16;;;;;;;2.20;0.93;;;14.50;99.90;;;;;;5011732;28;20192;-75
2022/07/11 02:33:42;;;;;;;4.40;1.70;;;14.50;99.90;;;;;;5011743;28;20186;-76
2022/07/11 02:36:08;;;;;;;6.30;1.20;;;14.30;99.90;;;;;;5011492;28;20209;-75
2022/07/11 02:38:34;;;;;;;2.60;1.37;;;14.10;99.90;;;;;;5011379;28;20192;-75
2022/07/11 02:41:00;;;;;;;4.30;1.60;;;14.20;99.90;;;;;;5011546;28;20669;-75
2022/07/11 02:43:27;;;;;;;2.57;1.10;;;14.20;99.90;;;;;;5011549;28;20423;-75
2022/07/11 02:45:55;;;;;;;3.37;1.23;;;14.20;99.90;;;;;;5011258;28;20520;-76
2022/07/11 02:48:20;;;;;;;3.33;1.30;;;14.20;99.90;;;;;;4977663;28;21024;-76
2022/07/11 02:50:46;;;;;;;7.23;1.70;;;14.20;99.90;;;;;;4993963;28;20451;-75
2022/07/11 02:53:12;;;;;;;4.07;1.50;;;14.20;99.90;;;;;;5010851;28;20197;-76
2022/07/11 02:55:38;;;;;;;4.63;1.63;;;14.20;99.90;;;;;;5010877;28;20470;-76
2022/07/11 02:58:04;;;;;;;3.17;1.13;;;14.30;99.90;;;;;;5011142;28;20187;-76
2022/07/11 03:00:29;;;;;;;3.33;1.50;;;14.30;99.90;;;;;;4993399;28;20184;-75
2022/07/11 03:02:55;;;;;;;9.10;1.50;;;14.30;99.90;;;;;;5010854;28;20197;-76
2022/07/11 03:05:21;;;;;;;2.03;1.37;;;14.40;99.90;;;;;;5011040;28;20219;-75
2022/07/11 03:07:47;;;;;;;1.60;1.27;;;14.40;99.90;;;;;;5011105;28;20244;-75
2022/07/11 03:10:12;;;;;;;3.17;1.23;;;14.40;99.90;;;;;;5010814;28;20227;-75
2022/07/11 03:12:38;;;;;;;4.70;1.40;;;14.40;99.90;;;;;;4976639;28;20193;-75
2022/07/11 03:15:05;;;;;;;5.77;1.43;;;14.30;99.90;;;;;;5010704;28;20247;-75
2022/07/11 03:17:31;;;;;;;2.30;1.10;;;14.30;99.90;;;;;;5011208;28;20425;-75
2022/07/11 03:19:57;;;;;;;2.50;1.43;;;14.30;99.90;;;;;;4993895;28;20433;-75
2022/07/11 03:22:23;;;;;;;2.90;1.10;;;14.30;99.90;;;;;;5011500;28;20709;-75
2022/07/11 03:24:50;;;;;;;3.70;1.80;;;14.30;99.90;;;;;;4994130;28;20189;-75
2022/07/11 03:27:16;;;;;;;3.00;1.30;;;14.20;99.90;;;;;;5012092;28;20480;-75
2022/07/11 03:29:42;;;;;;;1.37;1.27;;;14.10;99.90;;;;;;4992966;28;20480;-75
2022/07/11 03:32:08;;;;;;;1.20;1.10;;;14.10;99.90;;;;;;4976546;28;20428;-77
2022/07/11 03:34:34;;;;;;;3.80;1.37;;;14.20;99.90;;;;;;4992336;28;20186;-76
2022/07/11 03:37:00;;;;;;;3.30;1.30;;;14.30;99.90;;;;;;4992281;28;21007;-76
2022/07/11 03:39:26;;;;;;;2.60;1.50;;;14.30;99.90;;;;;;4992378;28;20592;-76
2022/07/11 03:41:51;;;;;;;2.27;1.10;;;14.40;99.90;;;;;;5010184;28;20434;-76
2022/07/11 03:44:17;;;;;;;3.00;1.30;;;14.40;99.90;;;;;;4992194;28;20184;-76
2022/07/11 03:46:43;;;;;;;1.83;1.20;;;14.40;99.90;;;;;;4975867;28;20261;-76
2022/07/11 03:49:08;;;;;;;6.63;2.40;;;14.30;99.90;;;;;;5009743;28;20683;-77
2022/07/11 03:51:34;;;;;;;3.97;1.27;;;14.30;99.90;;;;;;4975817;28;20204;-76
2022/07/11 03:54:00;;;;;;;4.03;1.17;;;14.20;99.90;;;;;;5009563;28;20268;-76
2022/07/11 03:56:26;;;;;;;2.73;1.20;;;14.20;99.90;;;;;;4991920;28;20303;-76
2022/07/11 03:58:51;;;;;;;2.60;1.20;;;14.30;99.90;;;;;;5009527;28;21004;-76
2022/07/11 04:01:19;;;;;;;3.30;1.40;;;14.40;99.90;;;;;;5009607;28;20195;-76
2022/07/11 04:03:46;;;;;;;2.50;1.30;;;14.40;99.90;;;;;;5009610;28;20424;-76
2022/07/11 04:06:12;;;;;;;3.00;1.50;;;14.50;99.90;;;;;;4991436;28;20480;-76
2022/07/11 04:08:38;;;;;;;3.43;1.30;;;14.60;99.90;;;;;;4991880;28;20455;-76
2022/07/11 04:11:04;;;;;;;2.03;1.40;;;14.60;99.90;;;;;;4991759;28;20456;-75
2022/07/11 04:13:30;;;;;;;3.53;1.13;;;14.60;99.90;;;;;;4975849;28;20894;-75
2022/07/11 04:15:56;;;;;;;9.40;1.10;;;14.60;99.90;;;;;;4991742;28;20275;-75
2022/07/11 04:18:21;;;;;;;2.17;1.10;;;14.70;99.90;;;;;;5009493;28;20917;-75
2022/07/11 04:20:49;;;;;;;6.93;1.23;;;14.60;99.90;;;;;;4991713;28;20204;-75
2022/07/11 04:23:15;;;;;;;3.77;1.43;;;14.60;99.90;;;;;;4991847;28;20546;-75
2022/07/11 04:25:41;;;;;;;2.40;1.17;;;14.70;99.90;;;;;;4991902;28;20473;-75
2022/07/11 04:28:07;;;;;;;4.83;1.30;;;14.60;99.90;;;;;;4992017;28;20423;-75
2022/07/11 04:30:33;;;;;;;3.23;1.40;;;14.60;99.90;;;;;;4991464;28;20185;-75
2022/07/11 04:32:58;;;;;;;3.10;1.23;;;14.70;99.90;;;;;;5009470;28;20185;-75
2022/07/11 04:35:26;;;;;;;2.83;1.40;;;14.80;99.90;;;;;;4991602;28;20448;-75
2022/07/11 04:37:52;;;;;;;2.73;1.13;;;14.70;99.90;;;;;;4993199;28;20846;-75
2022/07/11 04:40:18;;;;;;;2.53;1.10;;;14.80;99.90;;;;;;5011488;28;20961;-73
2022/07/11 04:42:43;;;;;;;2.40;1.20;;;14.90;99.90;;;;;;4993498;28;20189;-75
2022/07/11 04:45:10;;;;;;;6.70;1.30;;;14.90;99.90;;;;;;4977401;28;20475;-75
2022/07/11 04:47:36;;;;;;;4.43;1.30;;;14.90;99.90;;;;;;4977692;28;20188;-75
2022/07/11 04:50:01;;;;;;;2.07;1.37;;;15.00;99.90;;;;;;5011824;28;20416;-75
2022/07/11 04:52:27;;;;;;;1.80;1.50;;;15.10;99.90;;;;;;5011849;28;20427;-75
2022/07/11 04:54:54;;;;;;;5.13;1.67;;;15.10;99.90;;;;;;4993907;28;20431;-75
2022/07/11 04:57:20;;;;;;;4.87;1.83;;;15.20;99.90;;;;;;5011436;28;20201;-75
2022/07/11 04:59:45;;;;;;;3.87;2.00;;;15.20;99.90;;;;;;4993425;28;20420;-75
2022/07/11 05:02:11;;;;;;;3.30;1.53;;;15.20;99.90;;;;;;5011596;28;20430;-76
2022/07/11 05:04:37;;;;;;;9.80;2.30;;;15.30;99.90;;;;;;4993501;28;20174;-75
2022/07/11 05:07:02;;;;;;;2.50;1.90;;;15.30;99.90;;;;;;4977410;28;20225;-75
2022/07/11 05:09:28;;;;;;;3.13;1.60;;;15.30;99.90;;;;;;5011486;28;20186;-75
2022/07/11 05:11:54;;;;;;;3.33;1.83;;;15.30;99.90;;;;;;4977277;28;20188;-75
2022/07/11 05:14:19;;;;;;;5.90;2.03;;;15.30;99.90;;;;;;5011164;28;20187;-75
2022/07/11 05:16:45;;;;;;;2.30;1.57;;;15.30;99.90;;;;;;4993331;28;20202;-75
2022/07/11 05:19:11;;;;;;;4.83;1.57;;;15.40;99.90;;;;;;4993045;28;20190;-75
2022/07/11 05:21:37;;;;;;;4.73;1.80;;;15.40;99.90;;;;;;5010746;28;20189;-75
2022/07/11 05:24:03;;;;;;;6.30;1.80;;;15.50;99.90;;;;;;5011281;28;20180;-74
2022/07/11 05:26:29;;;;;;;5.10;1.63;;;15.60;99.90;;;;;;5010743;28;20480;-74
2022/07/11 05:28:54;;;;;;;2.07;1.30;;;15.60;99.90;;;;;;5010765;28;20255;-74
2022/07/11 05:31:20;;;;;;;6.13;1.33;;;15.60;99.90;;;;;;5011913;28;20188;-75
2022/07/11 05:33:46;;;;;;;3.83;1.40;;;15.70;99.90;;;;;;5012772;28;20763;-75
2022/07/11 05:36:12;;;;;;;3.23;1.90;;;15.80;99.90;;;;;;5010840;28;20298;-75
2022/07/11 05:38:38;;;;;;;4.50;1.40;;;15.90;99.90;;;;;;4992424;28;20857;-75
2022/07/11 05:41:04;;;;;;;3.53;1.80;;;16.00;99.90;;;;;;5010375;28;20209;-75
2022/07/11 05:43:29;;;;;;;3.47;1.47;;;16.00;99.90;;;;;;5010209;28;20427;-75
2022/07/11 05:45:55;;;;;;;3.87;1.73;;;16.00;99.90;;;;;;4992634;28;20503;-75
2022/07/11 05:48:21;;;;;;;9.07;2.10;;;16.10;99.90;;;;;;4992404;28;20292;-75
2022/07/11 05:50:46;;;;;;;5.40;1.43;;;16.20;99.90;;;;;;5010319;28;20700;-75
2022/07/11 05:53:13;;;;;;;3.63;1.63;;;16.30;99.90;;;;;;4976229;28;20596;-75
2022/07/11 05:55:38;;;;;;;4.30;2.00;;;16.30;99.90;;;;;;5009951;28;20205;-75
2022/07/11 05:58:04;;;;;;;2.70;1.53;;;16.30;99.90;;;;;;5009899;28;20562;-75
2022/07/11 06:00:30;;;;;;;3.30;1.43;;;16.40;99.90;;;;;;4975764;28;20664;-75
2022/07/11 06:02:55;;;;;;;7.07;1.57;;;16.50;99.90;;;;;;4975807;28;20200;-75
2022/07/11 06:05:22;;;;;;;3.60;2.40;;;16.30;99.90;;;;;;5010115;28;20214;-75
2022/07/11 06:10:34;;;;;;;5.23;2.00;;;16.30;99.90;;;;;;5009835;28;20938;-75
2022/07/11 06:13:00;;;;;;;2.13;1.27;;;16.40;99.90;;;;;;5009756;28;20428;-74
2022/07/11 06:15:26;;;;;;;3.20;1.53;;;16.50;99.90;;;;;;4975609;28;20455;-75
2022/07/11 06:17:51;;;;;;;8.73;1.63;;;16.70;99.90;;;;;;5009604;28;20289;-75
2022/07/11 06:20:17;;;;;;;4.90;1.70;;;16.80;99.90;;;;;;5009613;28;21018;-75
2022/07/11 06:22:43;;;;;;;2.20;1.80;;;16.80;99.90;;;;;;4976147;28;20230;-75
2022/07/11 06:25:09;;;;;;;1.97;1.50;;;16.90;99.90;;;;;;4992703;28;20300;-75
2022/07/11 06:27:38;;;;;;;1.50;1.37;;;16.80;99.90;;;;;;5010272;28;20689;-75
2022/07/11 06:30:04;;;;;;;3.53;1.93;;;16.90;99.90;;;;;;4992984;28;21001;-75
2022/07/11 06:32:31;;;;;;;1.77;1.43;;;16.80;99.90;;;;;;5010566;28;20849;-75
2022/07/11 06:34:56;;;;;;;4.00;1.87;;;17.00;99.90;;;;;;4992839;28;20507;-75
2022/07/11 06:37:22;;;;;;;4.53;2.00;;;17.20;99.90;;;;;;5009502;28;20877;-75
2022/07/11 06:39:48;;;;;;;3.77;2.00;;;17.30;99.90;;;;;;4991700;28;20203;-75
2022/07/11 06:42:13;;;;;;;10.63;2.10;;;17.50;99.90;;;;;;5009773;28;20233;-75
2022/07/11 06:44:39;;;;;;;1.90;1.60;;;17.60;99.90;;;;;;5009540;28;20261;-75
2022/07/11 06:47:05;;;;;;;2.80;1.50;;;17.70;99.90;;;;;;4991594;28;20811;-75
2022/07/11 06:49:31;;;;;;;2.50;1.90;;;17.80;99.90;;;;;;5008930;28;20208;-75
2022/07/11 06:51:56;;;;;;;5.30;1.70;;;17.80;99.90;;;;;;5009137;28;20423;-75
2022/07/11 06:54:22;;;;;;;4.20;1.80;;;17.90;99.90;;;;;;5008951;28;20266;-75
2022/07/11 06:56:48;;;;;;;5.80;2.50;;;17.90;99.90;;;;;;4991267;28;20208;-75
2022/07/11 06:59:13;;;;;;;5.50;1.87;;;18.00;99.90;;;;;;4990925;28;20193;-75
2022/07/11 07:01:39;;;;;;;5.17;1.70;;;18.20;99.90;;;;;;4991065;28;20278;-75
2022/07/11 07:04:04;;;;;;;2.13;1.70;;;18.40;99.90;;;;;;4990891;28;20199;-75
2022/07/11 07:06:30;;;;;;;10.70;1.90;;;18.30;99.90;;;;;;4991126;28;20235;-75
2022/07/11 07:08:56;;;;;;;3.00;2.00;;;18.40;99.90;;;;;;5009160;28;20183;-75
2022/07/11 07:11:21;;;;;;;7.60;2.60;;;18.40;99.90;;;;;;4975138;28;20193;-75
2022/07/11 07:13:49;;;;;;;4.80;1.60;;;18.50;99.90;;;;;;5008780;28;20743;-75
2022/07/11 07:16:15;;;;;;;8.60;2.17;;;18.60;99.90;;;;;;4991367;28;20198;-75
2022/07/11 07:18:43;;;;;;;5.47;3.07;;;18.70;99.90;;;;;;5008650;28;20422;-75
2022/07/11 07:21:08;;;;;;;2.50;2.20;;;18.80;99.90;;;;;;4991506;28;20612;-75
2022/07/11 07:23:34;;;;;;;3.83;2.17;;;18.90;99.90;;;;;;4991274;28;20431;-75
2022/07/11 07:26:00;;;;;;;4.30;2.07;;;18.80;99.90;;;;;;4991056;28;20245;-75
2022/07/11 07:28:28;;;;;;;3.23;2.47;;;18.90;99.90;;;;;;4991190;28;20232;-75
2022/07/11 07:30:54;;;;;;;3.30;1.87;;;18.70;99.90;;;;;;5009382;28;20185;-75
2022/07/11 07:33:20;;;;;;;5.83;2.20;;;18.80;99.90;;;;;;5009223;28;20420;-75
2022/07/11 07:35:45;;;;;;;3.73;2.13;;;19.00;99.90;;;;;;5009335;28;20540;-75
2022/07/11 07:38:11;;;;;;;3.13;2.40;;;19.10;99.90;;;;;;4991589;28;20474;-75
2022/07/11 07:40:36;;;;;;;3.80;2.17;;;19.00;99.90;;;;;;4992004;28;20297;-75
2022/07/11 07:43:02;;;;;;;4.57;2.87;;;19.00;99.90;;;;;;5009344;28;20189;-75
2022/07/11 07:45:28;;;;;;;3.47;1.90;;;19.20;99.90;;;;;;4991047;28;20229;-75
2022/07/11 07:47:54;;;;;;;8.50;2.20;;;19.30;99.90;;;;;;4991315;28;20192;-75
2022/07/11 07:50:22;;;;;;;2.23;2.03;;;19.50;99.90;;;;;;5009062;28;20185;-75
2022/07/11 07:52:47;;;;;;;2.63;1.60;;;19.60;99.90;;;;;;4991539;28;20209;-75
2022/07/11 07:55:13;;;;;;;2.20;1.97;;;19.70;99.90;;;;;;4991026;28;20474;-75
2022/07/11 07:57:39;;;;;;;2.20;1.80;;;20.00;99.90;;;;;;4990547;28;20196;-75
2022/07/11 08:02:50;;;;;;;2.23;2.00;;;20.10;99.90;;;;;;5008895;28;20199;-75
2022/07/11 08:05:17;;;;;;;3.30;1.30;;;20.10;99.90;;;;;;5008357;28;20480;-75
2022/07/11 08:07:43;;;;;;;2.33;1.70;;;20.20;99.90;;;;;;4974344;28;21241;-75
2022/07/11 08:10:09;;;;;;;2.50;1.30;;;20.40;99.90;;;;;;4990563;28;20475;-75
2022/07/11 08:12:35;;;;;;;2.13;1.53;;;20.50;99.90;;;;;;5007346;28;20209;-75
2022/07/11 08:15:00;;;;;;;1.83;1.67;;;20.60;99.90;;;;;;5007880;28;20420;-75
2022/07/11 08:17:26;;;;;;;2.60;1.70;;;20.70;99.90;;;;;;4973412;28;20349;-75
2022/07/11 08:19:52;;;;;;;2.90;1.70;;;20.70;99.90;;;;;;5007588;28;20664;-75
2022/07/11 08:22:18;;;;;;;1.83;1.50;;;20.70;99.90;;;;;;4989684;28;20410;-75
2022/07/11 08:24:44;;;;;;;3.93;1.60;;;20.60;99.90;;;;;;5007940;28;20195;-75
2022/07/11 08:27:09;;;;;;;1.53;1.10;;;20.50;99.90;;;;;;4989751;28;20299;-75
2022/07/11 08:29:35;;;;;;;2.83;1.17;;;20.50;99.90;;;;;;5007509;28;20416;-75
2022/07/11 08:32:01;;;;;;;2.03;1.63;;;20.70;99.90;;;;;;5007648;28;20275;-75
2022/07/11 08:34:27;;;;;;;2.53;1.40;;;20.70;99.90;;;;;;5007305;28;20220;-75
2022/07/11 08:36:53;;;;;;;3.97;1.60;;;20.90;99.90;;;;;;4989549;28;20881;-75
2022/07/11 08:39:19;;;;;;;1.40;1.30;;;20.90;99.90;;;;;;5007312;28;20456;-75
2022/07/11 08:41:44;;;;;;;2.57;1.50;;;20.90;99.90;;;;;;5007500;28;20541;-75
2022/07/11 08:44:14;;;;;;;2.57;0.97;;;21.00;99.90;;;;;;5007509;28;20791;-75
2022/07/11 08:46:41;;;;;;;1.30;0.83;;;21.10;99.90;;;;;;4989609;28;20857;-75
2022/07/11 08:49:06;;;;;;;1.70;1.30;;;21.20;99.90;;;;;;4990212;28;20425;-75
2022/07/11 08:51:36;;;;;;;1.17;1.00;;;21.50;99.90;;;;;;5007891;28;20757;-75
2022/07/11 08:54:02;;;;;;;3.00;1.00;;;21.80;99.40;;;;;;5008006;28;20195;-75
2022/07/11 08:56:29;;;;;;;0.90;0.80;;;22.10;99.00;;;;;;5007798;28;20450;-75
2022/07/11 08:58:57;;;;;;;1.03;0.80;;;22.20;96.90;;;;;;4990256;28;20253;-75
2022/07/11 09:01:34;;;;;;;3.43;1.27;;;22.30;96.30;;;;;;5008126;28;20425;-75
2022/07/11 09:04:00;;;;;;;2.13;0.50;;;22.20;95.70;;;;;;5008280;28;20510;-75
2022/07/11 09:06:27;;;;;;;4.40;0.77;;;22.20;93.80;;;;;;4990362;28;20530;-75
2022/07/11 09:08:58;;;;;;;2.83;0.70;;;22.20;96.00;;;;;;5008142;28;20428;-75
2022/07/11 09:11:23;;;;;;;0.80;0.70;;;22.50;94.00;;;;;;5008504;28;20424;-76
2022/07/11 09:13:49;;;;;;;1.00;0.80;;;22.90;95.30;;;;;;5008584;28;20452;-75
2022/07/11 09:16:17;;;;;;;1.67;0.73;;;23.10;93.20;;;;;;5008376;28;20683;-75
2022/07/11 09:18:43;;;;;;;0.90;0.50;;;22.90;93.00;;;;;;5008370;28;20933;-75
2022/07/11 09:26:51;;;;;;;0.80;0.40;;;22.90;92.40;;;;;;5011628;28;20569;-75
2022/07/11 09:29:22;;;;;;;0.70;0.40;;;23.30;90.40;;;;;;5011562;28;20977;-75
2022/07/11 09:31:49;;;;;;;0.70;0.30;;;23.70;86.80;;;;;;4993281;28;20428;-75
2022/07/11 09:34:16;;;;;;;0.70;0.50;;;24.20;89.40;;;;;;4993565;28;20507;-75
2022/07/11 09:36:44;;;;;;;5.63;0.50;;;24.30;85.10;;;;;;5011132;28;20515;-75
2022/07/11 09:39:12;;;;;;;1.00;0.40;;;24.30;84.50;;;;;;5010719;28;20455;-75
2022/07/11 09:41:39;;;;;;;1.77;0.50;;;24.60;84.80;;;;;;5011348;28;20517;-75
2022/07/11 09:44:09;;;;;;;1.00;0.50;;;24.90;84.90;;;;;;5010950;28;20435;-75
2022/07/11 09:46:35;;;;;;;0.90;0.60;;;25.30;81.40;;;;;;5010811;28;20484;-75
2022/07/11 09:49:01;;;;;;;0.90;0.70;;;25.50;80.30;;;;;;4993245;28;20442;-75
2022/07/11 09:51:27;;;;;;;0.90;0.50;;;25.80;78.80;;;;;;5012224;28;20572;-75
2022/07/11 09:53:57;;;;;;;1.27;0.50;;;25.70;77.10;;;;;;5010943;28;20971;-75
2022/07/11 09:56:51;;;;;;;1.33;0.53;;;25.70;76.40;;;;;;4993201;28;20446;-75
2022/07/11 09:59:17;;;;;;;1.97;0.50;;;26.00;77.80;;;;;;5010843;28;21080;-75
2022/07/11 10:01:44;;;;;;;1.57;0.60;;;26.10;78.30;;;;;;5010287;28;21254;-75
2022/07/11 10:04:11;;;;;;;0.80;0.50;;;25.70;80.20;;;;;;5010473;28;20455;-75
2022/07/11 10:06:38;;;;;;;1.63;0.50;;;25.70;78.00;;;;;;5011963;28;20480;-75
2022/07/11 10:09:07;;;;;;;1.77;0.70;;;25.80;80.60;;;;;;5011501;28;20414;-76
2022/07/11 10:11:33;;;;;;;0.90;0.40;;;26.00;79.70;;;;;;5010396;28;20416;-75
2022/07/11 10:14:00;;;;;;;0.80;0.70;;;26.20;75.90;;;;;;5010390;28;20837;-76
2022/07/11 10:16:44;;;;;;;0.70;0.50;;;26.30;74.10;;;;;;5010304;28;20443;-75
2022/07/11 10:19:13;;;;;;;1.00;0.53;;;26.10;76.40;;;;;;5010133;28;20423;-75
2022/07/11 10:22:07;;;;;;;0.90;0.50;;;26.20;75.00;;;;;;4992127;28;20428;-75
2022/07/11 10:24:45;;;;;;;0.70;0.50;;;26.40;76.10;;;;;;4971919;28;20498;-75
2022/07/11 10:27:16;;;;;;;5.53;0.50;;;27.00;73.20;;;;;;4991957;28;21012;-75
2022/07/11 10:29:50;;;;;;;2.50;0.70;;;27.00;72.80;;;;;;4991860;28;20409;-76
2022/07/11 10:32:16;;;;;;;0.90;0.50;;;27.30;73.80;;;;;;5009926;28;20422;-76
2022/07/11 10:34:43;;;;;;;3.23;0.60;;;27.20;72.90;;;;;;5008836;28;20830;-75
2022/07/11 10:37:09;;;;;;;0.80;0.67;;;27.00;70.40;;;;;;5009660;28;20448;-76
2022/07/11 10:39:36;;;;;;;0.90;0.63;;;26.70;72.60;;;;;;5009395;28;20462;-75
2022/07/11 10:42:04;;;;;;;0.70;0.47;;;26.50;73.30;;;;;;5009822;28;20425;-75
2022/07/11 10:44:54;;;;;;;0.93;0.50;;;26.10;73.20;;;;;;5009795;28;20428;-76
2022/07/11 10:47:37;;;;;;;1.40;0.70;;;25.80;77.70;;;;;;5009769;28;20836;-76
2022/07/11 10:50:13;;;;;;;0.80;0.50;;;25.60;74.60;;;;;;4991729;28;20413;-75
2022/07/11 10:52:42;;;;;;;1.00;0.60;;;25.70;78.10;;;;;;5010380;28;20803;-76
2022/07/11 10:55:35;;;;;;;2.40;0.80;;;25.70;78.60;;;;;;5010857;28;20431;-76
2022/07/11 10:58:24;;;;;;;2.60;0.70;;;25.70;76.80;;;;;;5011720;28;20541;-75
2022/07/11 11:01:16;;;;;;;1.00;0.60;;;25.70;76.80;;;;;;5012164;28;20844;-76
2022/07/11 11:03:43;;;;;;;0.80;0.60;;;25.50;77.20;;;;;;5009449;28;20497;-77
2022/07/11 11:06:09;;;;;;;0.93;0.83;;;25.40;79.80;;;;;;5009157;28;20546;-79
2022/07/11 11:08:42;;;;;;;2.60;0.60;;;25.80;79.90;;;;;;5009235;28;20427;-76
2022/07/11 11:11:35;;;;;;;5.80;0.93;;;26.20;79.90;;;;;;5008993;28;20478;-76
2022/07/11 11:14:15;;;;;;;1.00;0.63;;;26.30;78.60;;;;;;5009215;28;20590;-76
2022/07/11 11:16:41;;;;;;;1.77;0.70;;;26.60;76.70;;;;;;4991195;28;20462;-76
2022/07/11 11:19:07;;;;;;;1.73;1.00;;;26.60;77.40;;;;;;5009047;28;20428;-76
2022/07/11 11:21:33;;;;;;;1.83;1.00;;;26.50;78.60;;;;;;5008949;28;20936;-77
2022/07/11 11:24:00;;;;;;;1.33;1.03;;;26.30;76.30;;;;;;5008713;28;20450;-76
2022/07/11 11:26:42;;;;;;;2.23;1.00;;;26.10;76.90;;;;;;5008844;28;20783;-76
2022/07/11 11:29:08;;;;;;;1.63;0.90;;;25.70;78.40;;;;;;4991444;28;20468;-76
2022/07/11 11:31:33;;;;;;;2.27;0.67;;;25.40;79.20;;;;;;4990869;28;20425;-76
2022/07/11 11:34:02;;;;;;;2.30;0.90;;;25.10;79.50;;;;;;4990791;28;20432;-76
2022/07/11 11:36:29;;;;;;;1.00;0.90;;;25.10;81.10;;;;;;5008387;28;20446;-76
2022/07/11 11:38:55;;;;;;;1.40;1.00;;;25.00;82.20;;;;;;4990240;28;20800;-76
2022/07/11 11:41:26;;;;;;;4.40;0.93;;;24.90;84.20;;;;;;4990622;28;20433;-76
2022/07/11 11:43:55;;;;;;;1.90;0.70;;;24.90;83.50;;;;;;5008449;28;20532;-76
2022/07/11 11:46:28;;;;;;;1.83;0.80;;;24.70;82.60;;;;;;5008053;28;20483;-76
2022/07/11 11:48:58;;;;;;;1.20;0.97;;;24.50;82.50;;;;;;5008468;28;20424;-76
2022/07/11 11:51:26;;;;;;;1.43;1.07;;;24.30;85.00;;;;;;4990951;28;20525;-76
2022/07/11 11:54:02;;;;;;;1.93;0.80;;;24.50;86.60;;;;;;5008978;28;20950;-76
2022/07/11 11:56:29;;;;;;;1.53;0.93;;;24.90;84.40;;;;;;4990952;28;20452;-76
2022/07/11 11:59:04;;;;;;;6.33;1.20;;;25.20;83.80;;;;;;4991487;28;20981;-77
2022/07/11 12:01:31;;;;;;;0.80;0.73;;;25.30;83.60;;;;;;5009485;28;20469;-77
2022/07/11 12:04:00;;;;;;;1.83;0.90;;;25.80;81.00;;;;;;5008713;28;20523;-76
2022/07/11 12:06:38;;;;;;;1.90;1.00;;;25.60;80.00;;;;;;5008445;28;20897;-76
2022/07/11 12:09:12;;;;;;;1.10;0.70;;;25.40;81.80;;;;;;5008477;28;20424;-77
2022/07/11 12:11:39;;;;;;;1.30;1.00;;;25.80;84.00;;;;;;5008733;28;20400;-76
2022/07/11 12:14:08;;;;;;;1.50;0.90;;;25.40;79.60;;;;;;5008780;28;20423;-76
2022/07/11 12:16:49;;;;;;;3.30;1.10;;;25.90;78.50;;;;;;5008574;28;20454;-76
2022/07/11 12:19:19;;;;;;;3.23;1.00;;;25.90;79.30;;;;;;4991921;28;20430;-77
2022/07/11 12:21:50;;;;;;;1.77;1.00;;;25.70;78.50;;;;;;5009725;28;20457;-77
2022/07/11 12:24:21;;;;;;;3.77;0.80;;;25.60;78.90;;;;;;5011775;28;20427;-77
2022/07/11 12:26:47;;;;;;;0.90;0.90;;;25.30;81.00;;;;;;5011029;28;20478;-77
2022/07/11 12:29:22;;;;;;;1.50;0.93;;;24.90;81.40;;;;;;4975483;28;20431;-76
2022/07/11 12:31:56;;;;;;;1.53;0.90;;;24.80;83.10;;;;;;5008807;28;20431;-76
2022/07/11 12:34:41;;;;;;;2.60;1.20;;;24.70;83.20;;;;;;4990793;28;20436;-77
2022/07/11 12:37:09;;;;;;;1.10;1.00;;;25.20;81.50;;;;;;5008700;28;20439;-76
2022/07/11 12:39:41;;;;;;;1.57;1.10;;;25.30;83.80;;;;;;5008269;28;20458;-77
2022/07/11 12:42:21;;;;;;;0.80;0.80;;;25.30;80.80;;;;;;4991010;28;20445;-77
2022/07/11 12:45:07;;;;;;;2.13;0.87;;;25.30;81.70;;;;;;5007768;28;20430;-77
2022/07/11 12:47:34;;;;;;;1.83;1.00;;;25.90;81.00;;;;;;5007522;28;20420;-77
2022/07/11 12:50:17;;;;;;;1.73;1.07;;;26.00;81.30;;;;;;4989436;28;20506;-76
2022/07/11 12:52:45;;;;;;;1.73;0.90;;;25.80;79.10;;;;;;4973403;28;20423;-77
2022/07/11 12:55:19;;;;;;;1.40;0.83;;;25.90;81.70;;;;;;5007513;28;20420;-76
2022/07/11 12:58:05;;;;;;;2.50;1.07;;;25.50;78.60;;;;;;5008944;28;20416;-77
2022/07/11 13:00:32;;;;;;;1.47;1.37;;;25.30;82.00;;;;;;5012145;28;20490;-77
2022/07/11 13:02:59;;;;;;;1.60;0.90;;;25.70;84.00;;;;;;5012001;28;20416;-77